Terminal Aerodrome Forecast
Issued by NWS Cleveland, OH

Home | Current Version | Previous Version | Text Only | Print | Product List | Glossary On
Versions: 1 2 3 4 5 6 7 8 9 10 11 12 13 14 15 16 17 18 19 20 21 22 23 24
841
FTUS41 KCLE 230520
TAFTOL
TAF
KTOL 230520Z 2306/2406 07010KT 2SM BR OVC002
      TEMPO 2306/2310 3/4SM BR
     FM231200 03008KT 3SM BR VCSH OVC006
     FM231700 03008KT 5SM -RA BR OVC006
     FM232100 03005KT 5SM BR OVC010=

USA.gov is the U.S. government's official web portal to all federal, state and local government web resources and services.